Juneau International Airport
PAJN : now visible

Airfield :











YOU CAN JOIN US ON...

 
LOGIN :

Register | Disclaimer

   EN    FR    IT 

 









Legend :    VFR   Marginal VFR   IFR   Intensive IFR   Very Intensive IFR
Visi :
Ceiling :
>= 8 km
>= 3000ft
5 to 8 km
1000 to 3000 ft
1500m to 5 km
500 to 1000 ft
800 to 1500m
200 to 500 ft
< 800m
< 200 ft
Symbols :   Thunderstorms  Fog  Heavy snow  Heavy precipitations  Wind > 20 kt






- Airport Elevation : 21 ft
- IATA code : JNU


PAJN - Juneau International

CURRENT METAR :
  • 100953Z 00000KT 5SM BCFG BR FEW003 BKN036 M02/M02 A3041 RMK SLP296 BCFG SE AND SW I1000 T10171022 VIA AUTODIAL

EXPIRED METARs :
  • 100920Z 00000KT 3SM BCFG BR FEW006 OVC036 M01/M02 A3040 RMK AO2 BCFG SE AND SW T10111017
  • 100853Z 29003KT 1/2SM FZFG SCT001 OVC033 M01/M02 A3039 RMK AO2 SLP292 I3000 T10111022 400561017 53019 RVRNO
  • 100753Z 00000KT 1/2SM FZFG VV003 M01/M02 A3037 RMK AO2 SLP284 I1000 T10111017 RVRNO

TAF PAJN
Valid from the 10 at 07:00 until the 11 at 06:00 UTC


100700Z 1007/1106 06003KT 3SM BR SCT002 SCT070
TEMPO 1007/1011 00000KT 1/2SM FG BKN002
FM101600 34005KT P6SM FEW070
FM101900 24008KT P6SM SKC



MET'MAP, your aeronautical weather chart ! - Copyright ORBIFLY December 2007 - Disclaimer

ORBIFLY MET'MAP TEAM :

Programming & Development : Alexandra Zaïnal
Concept & original design : Baudouin d'Aumeries
Assistance for programming : Marc-Olivier Méhu
Technical & hardware support : Manuel Goepfert

Contact : metmap@orbifly.com




SOURCES & CREDITS :

   NOAA       Earth
Advisory